sensor_id;sensor_type;location;lat;lon;timestamp;P1;durP1;ratioP1;P2;durP2;ratioP2
16430;SDS011;8325;49.284;7.238;2023-06-10T04:01:17;14.48;;;11.77;;
16430;SDS011;8325;49.284;7.238;2023-06-10T04:05:32;16.00;;;12.30;;
16430;SDS011;8325;49.284;7.238;2023-06-10T04:09:44;14.07;;;11.85;;
16430;SDS011;8325;49.284;7.238;2023-06-10T04:13:55;12.95;;;11.65;;
16430;SDS011;8325;49.284;7.238;2023-06-10T04:18:08;13.43;;;12.13;;
16430;SDS011;8325;49.284;7.238;2023-06-10T04:22:20;13.85;;;12.45;;
16430;SDS011;8325;49.284;7.238;2023-06-10T04:26:35;15.95;;;12.38;;
16430;SDS011;8325;49.284;7.238;2023-06-10T04:30:47;13.35;;;12.05;;
16430;SDS011;8325;49.284;7.238;2023-06-10T04:35:00;15.57;;;12.48;;
16430;SDS011;8325;49.284;7.238;2023-06-10T04:39:12;13.95;;;12.45;;
16430;SDS011;8325;49.284;7.238;2023-06-10T04:43:24;13.85;;;12.48;;
16430;SDS011;8325;49.284;7.238;2023-06-10T04:47:35;16.75;;;12.52;;
16430;SDS011;8325;49.284;7.238;2023-06-10T04:51:49;13.15;;;11.68;;
16430;SDS011;8325;49.284;7.238;2023-06-10T04:56:01;14.95;;;12.15;;
16430;SDS011;8325;49.284;7.238;2023-06-10T05:00:12;13.13;;;11.43;;
16430;SDS011;8325;49.284;7.238;2023-06-10T05:04:25;13.43;;;12.13;;
16430;SDS011;8325;49.284;7.238;2023-06-10T05:08:37;13.70;;;11.98;;
16430;SDS011;8325;49.284;7.238;2023-06-10T05:12:48;13.43;;;11.75;;
16430;SDS011;8325;49.284;7.238;2023-06-10T05:17:00;13.63;;;11.38;;
16430;SDS011;8325;49.284;7.238;2023-06-10T05:21:11;13.73;;;11.93;;
16430;SDS011;8325;49.284;7.238;2023-06-10T05:25:24;11.95;;;10.80;;
16430;SDS011;8325;49.284;7.238;2023-06-10T05:29:38;11.80;;;10.60;;
16430;SDS011;8325;49.284;7.238;2023-06-10T05:33:50;12.00;;;10.80;;
16430;SDS011;8325;49.284;7.238;2023-06-10T05:38:02;11.65;;;10.55;;
16430;SDS011;8325;49.284;7.238;2023-06-10T05:42:14;12.40;;;11.15;;
16430;SDS011;8325;49.284;7.238;2023-06-10T05:46:26;11.98;;;10.82;;
16430;SDS011;8325;49.284;7.238;2023-06-10T05:50:37;12.40;;;11.15;;
16430;SDS011;8325;49.284;7.238;2023-06-10T05:54:51;12.02;;;10.70;;
16430;SDS011;8325;49.284;7.238;2023-06-10T05:59:02;11.85;;;10.65;;
16430;SDS011;8325;49.284;7.238;2023-06-10T06:03:14;12.25;;;11.25;;
16430;SDS011;8325;49.284;7.238;2023-06-10T06:07:26;12.00;;;10.95;;
16430;SDS011;8325;49.284;7.238;2023-06-10T06:11:38;11.88;;;10.68;;
16430;SDS011;8325;49.284;7.238;2023-06-10T06:15:50;11.38;;;10.38;;
16430;SDS011;8325;49.284;7.238;2023-06-10T06:20:02;10.68;;;9.77;;
16430;SDS011;8325;49.284;7.238;2023-06-10T06:24:15;10.63;;;9.73;;
16430;SDS011;8325;49.284;7.238;2023-06-10T06:28:27;11.18;;;10.23;;
16430;SDS011;8325;49.284;7.238;2023-06-10T06:32:40;11.50;;;10.50;;
16430;SDS011;8325;49.284;7.238;2023-06-10T06:36:52;11.20;;;9.90;;
16430;SDS011;8325;49.284;7.238;2023-06-10T06:41:04;10.95;;;9.95;;
16430;SDS011;8325;49.284;7.238;2023-06-10T06:45:17;11.50;;;10.45;;
16430;SDS011;8325;49.284;7.238;2023-06-10T06:49:29;11.30;;;10.18;;
16430;SDS011;8325;49.284;7.238;2023-06-10T06:53:41;12.57;;;10.02;;
16430;SDS011;8325;49.284;7.238;2023-06-10T06:57:55;10.98;;;9.88;;
16430;SDS011;8325;49.284;7.238;2023-06-10T07:02:07;11.15;;;9.90;;
16430;SDS011;8325;49.284;7.238;2023-06-10T07:06:19;11.07;;;9.82;;
16430;SDS011;8325;49.284;7.238;2023-06-10T07:10:30;11.50;;;10.30;;
16430;SDS011;8325;49.284;7.238;2023-06-10T07:14:42;11.10;;;9.93;;
16430;SDS011;8325;49.284;7.238;2023-06-10T07:18:54;11.13;;;10.10;;
16430;SDS011;8325;49.284;7.238;2023-06-10T07:23:06;11.57;;;10.38;;
16430;SDS011;8325;49.284;7.238;2023-06-10T07:27:17;12.77;;;11.13;;
16430;SDS011;8325;49.284;7.238;2023-06-10T07:31:29;11.50;;;10.40;;
16430;SDS011;8325;49.284;7.238;2023-06-10T07:35:41;12.35;;;11.05;;
16430;SDS011;8325;49.284;7.238;2023-06-10T07:39:54;11.73;;;10.63;;
16430;SDS011;8325;49.284;7.238;2023-06-10T07:44:07;11.70;;;10.50;;
16430;SDS011;8325;49.284;7.238;2023-06-10T07:48:18;10.75;;;9.75;;
16430;SDS011;8325;49.284;7.238;2023-06-10T07:52:30;11.38;;;10.18;;
16430;SDS011;8325;49.284;7.238;2023-06-10T07:56:42;11.10;;;9.57;;
16430;SDS011;8325;49.284;7.238;2023-06-10T08:00:54;10.90;;;9.82;;
16430;SDS011;8325;49.284;7.238;2023-06-10T08:05:05;9.77;;;8.88;;
16430;SDS011;8325;49.284;7.238;2023-06-10T08:09:18;10.00;;;9.00;;
16430;SDS011;8325;49.284;7.238;2023-06-10T08:13:29;8.88;;;7.97;;
16430;SDS011;8325;49.284;7.238;2023-06-10T08:17:41;8.90;;;8.10;;
16430;SDS011;8325;49.284;7.238;2023-06-10T08:21:53;8.05;;;7.35;;
16430;SDS011;8325;49.284;7.238;2023-06-10T08:26:04;8.10;;;7.30;;
16430;SDS011;8325;49.284;7.238;2023-06-10T08:30:16;9.60;;;8.05;;
16430;SDS011;8325;49.284;7.238;2023-06-10T08:34:28;8.00;;;7.22;;
16430;SDS011;8325;49.284;7.238;2023-06-10T08:38:39;9.25;;;7.80;;
16430;SDS011;8325;49.284;7.238;2023-06-10T08:47:16;8.52;;;7.63;;
16430;SDS011;8325;49.284;7.238;2023-06-10T08:51:29;8.48;;;7.50;;
16430;SDS011;8325;49.284;7.238;2023-06-10T08:55:43;7.97;;;7.15;;
16430;SDS011;8325;49.284;7.238;2023-06-10T08:59:59;8.18;;;7.38;;
16430;SDS011;8325;49.284;7.238;2023-06-10T09:04:11;5.97;;;5.45;;
16430;SDS011;8325;49.284;7.238;2023-06-10T09:08:23;6.10;;;5.50;;
16430;SDS011;8325;49.284;7.238;2023-06-10T09:12:35;7.00;;;5.40;;
16430;SDS011;8325;49.284;7.238;2023-06-10T09:16:46;5.70;;;5.20;;
16430;SDS011;8325;49.284;7.238;2023-06-10T09:20:59;6.47;;;5.32;;
16430;SDS011;8325;49.284;7.238;2023-06-10T09:25:11;7.75;;;5.55;;
16430;SDS011;8325;49.284;7.238;2023-06-10T09:29:24;7.63;;;5.63;;
16430;SDS011;8325;49.284;7.238;2023-06-10T09:33:38;5.70;;;5.20;;
16430;SDS011;8325;49.284;7.238;2023-06-10T09:37:53;6.38;;;5.20;;
16430;SDS011;8325;49.284;7.238;2023-06-10T09:42:26;6.97;;;5.20;;
16430;SDS011;8325;49.284;7.238;2023-06-10T09:46:37;5.40;;;4.90;;
16430;SDS011;8325;49.284;7.238;2023-06-10T09:50:49;6.07;;;5.22;;
16430;SDS011;8325;49.284;7.238;2023-06-10T09:55:01;5.68;;;5.18;;
16430;SDS011;8325;49.284;7.238;2023-06-10T09:59:13;6.28;;;5.05;;
16430;SDS011;8325;49.284;7.238;2023-06-10T10:03:25;7.25;;;5.57;;
16430;SDS011;8325;49.284;7.238;2023-06-10T10:07:36;6.32;;;5.57;;
16430;SDS011;8325;49.284;7.238;2023-06-10T10:11:48;6.65;;;5.85;;
16430;SDS011;8325;49.284;7.238;2023-06-10T10:16:04;6.70;;;5.80;;
16430;SDS011;8325;49.284;7.238;2023-06-10T10:20:22;6.00;;;5.40;;
16430;SDS011;8325;49.284;7.238;2023-06-10T10:24:41;5.47;;;4.88;;
16430;SDS011;8325;49.284;7.238;2023-06-10T10:29:10;6.78;;;5.28;;
16430;SDS011;8325;49.284;7.238;2023-06-10T10:33:30;6.15;;;5.00;;
16430;SDS011;8325;49.284;7.238;2023-06-10T10:37:44;6.00;;;5.40;;
16430;SDS011;8325;49.284;7.238;2023-06-10T10:41:57;7.32;;;6.63;;
16430;SDS011;8325;49.284;7.238;2023-06-10T10:46:13;6.25;;;5.30;;
16430;SDS011;8325;49.284;7.238;2023-06-10T10:50:28;8.10;;;6.10;;
16430;SDS011;8325;49.284;7.238;2023-06-10T10:54:45;5.80;;;5.30;;
16430;SDS011;8325;49.284;7.238;2023-06-10T10:59:03;6.47;;;5.57;;
16430;SDS011;8325;49.284;7.238;2023-06-10T11:03:17;5.85;;;5.35;;
16430;SDS011;8325;49.284;7.238;2023-06-10T11:07:31;6.10;;;5.55;;
16430;SDS011;8325;49.284;7.238;2023-06-10T11:11:49;8.23;;;5.63;;
16430;SDS011;8325;49.284;7.238;2023-06-10T11:16:01;5.93;;;5.43;;
16430;SDS011;8325;49.284;7.238;2023-06-10T11:20:36;7.05;;;5.20;;
16430;SDS011;8325;49.284;7.238;2023-06-10T11:25:13;6.10;;;5.47;;
16430;SDS011;8325;49.284;7.238;2023-06-10T11:29:26;6.13;;;5.55;;
16430;SDS011;8325;49.284;7.238;2023-06-10T11:33:38;5.90;;;5.40;;
16430;SDS011;8325;49.284;7.238;2023-06-10T11:37:50;6.15;;;5.47;;
16430;SDS011;8325;49.284;7.238;2023-06-10T11:42:01;6.35;;;5.72;;
16430;SDS011;8325;49.284;7.238;2023-06-10T11:46:14;5.85;;;5.35;;
16430;SDS011;8325;49.284;7.238;2023-06-10T11:50:29;6.05;;;5.53;;
16430;SDS011;8325;49.284;7.238;2023-06-10T11:54:46;6.90;;;5.70;;
16430;SDS011;8325;49.284;7.238;2023-06-10T11:59:06;6.00;;;5.50;;
16430;SDS011;8325;49.284;7.238;2023-06-10T12:03:21;5.85;;;5.18;;
16430;SDS011;8325;49.284;7.238;2023-06-10T12:07:33;5.65;;;5.20;;
16430;SDS011;8325;49.284;7.238;2023-06-10T12:11:45;5.40;;;5.00;;
16430;SDS011;8325;49.284;7.238;2023-06-10T12:16:07;6.00;;;5.50;;
16430;SDS011;8325;49.284;7.238;2023-06-10T12:20:26;5.68;;;5.10;;
16430;SDS011;8325;49.284;7.238;2023-06-10T12:24:46;5.72;;;5.25;;
16430;SDS011;8325;49.284;7.238;2023-06-10T12:29:16;5.50;;;5.00;;
16430;SDS011;8325;49.284;7.238;2023-06-10T12:33:33;6.07;;;5.47;;
16430;SDS011;8325;49.284;7.238;2023-06-10T12:37:56;6.55;;;5.65;;
16430;SDS011;8325;49.284;7.238;2023-06-10T12:42:17;7.28;;;6.22;;
16430;SDS011;8325;49.284;7.238;2023-06-10T12:46:36;6.80;;;6.20;;
16430;SDS011;8325;49.284;7.238;2023-06-10T12:50:53;7.95;;;6.10;;
16430;SDS011;8325;49.284;7.238;2023-06-10T12:55:06;7.25;;;6.65;;
16430;SDS011;8325;49.284;7.238;2023-06-10T12:59:18;7.25;;;6.57;;
16430;SDS011;8325;49.284;7.238;2023-06-10T13:03:30;7.28;;;6.57;;
16430;SDS011;8325;49.284;7.238;2023-06-10T13:07:43;7.13;;;6.45;;
16430;SDS011;8325;49.284;7.238;2023-06-10T13:11:55;7.10;;;6.50;;
16430;SDS011;8325;49.284;7.238;2023-06-10T13:16:07;6.85;;;6.30;;
16430;SDS011;8325;49.284;7.238;2023-06-10T13:20:18;7.30;;;6.70;;
16430;SDS011;8325;49.284;7.238;2023-06-10T13:24:31;7.63;;;6.68;;
16430;SDS011;8325;49.284;7.238;2023-06-10T13:28:43;7.93;;;7.13;;
16430;SDS011;8325;49.284;7.238;2023-06-10T13:32:55;7.40;;;6.70;;
16430;SDS011;8325;49.284;7.238;2023-06-10T13:37:07;7.68;;;6.95;;
16430;SDS011;8325;49.284;7.238;2023-06-10T13:41:19;7.63;;;6.88;;
16430;SDS011;8325;49.284;7.238;2023-06-10T13:45:30;7.95;;;7.25;;
16430;SDS011;8325;49.284;7.238;2023-06-10T13:49:42;7.43;;;6.80;;
16430;SDS011;8325;49.284;7.238;2023-06-10T13:53:54;7.82;;;7.03;;
16430;SDS011;8325;49.284;7.238;2023-06-10T13:58:05;7.00;;;6.30;;
16430;SDS011;8325;49.284;7.238;2023-06-10T14:02:17;7.60;;;6.72;;
16430;SDS011;8325;49.284;7.238;2023-06-10T14:06:29;7.07;;;6.47;;
16430;SDS011;8325;49.284;7.238;2023-06-10T14:10:41;7.28;;;6.68;;
16430;SDS011;8325;49.284;7.238;2023-06-10T14:14:53;7.90;;;7.13;;
16430;SDS011;8325;49.284;7.238;2023-06-10T14:19:04;7.68;;;6.93;;
16430;SDS011;8325;49.284;7.238;2023-06-10T14:23:16;7.85;;;7.15;;
16430;SDS011;8325;49.284;7.238;2023-06-10T14:27:28;8.55;;;7.75;;
16430;SDS011;8325;49.284;7.238;2023-06-10T14:31:40;9.82;;;7.90;;
16430;SDS011;8325;49.284;7.238;2023-06-10T14:35:52;7.90;;;7.20;;
16430;SDS011;8325;49.284;7.238;2023-06-10T14:40:04;7.75;;;6.95;;
16430;SDS011;8325;49.284;7.238;2023-06-10T14:44:16;7.85;;;6.78;;
16430;SDS011;8325;49.284;7.238;2023-06-10T14:48:28;7.75;;;6.95;;
16430;SDS011;8325;49.284;7.238;2023-06-10T14:52:39;6.85;;;6.25;;
16430;SDS011;8325;49.284;7.238;2023-06-10T14:56:51;7.10;;;5.80;;
16430;SDS011;8325;49.284;7.238;2023-06-10T15:01:03;6.40;;;5.85;;
16430;SDS011;8325;49.284;7.238;2023-06-10T15:05:15;6.53;;;5.93;;
16430;SDS011;8325;49.284;7.238;2023-06-10T15:09:28;8.35;;;6.28;;
16430;SDS011;8325;49.284;7.238;2023-06-10T15:13:39;6.53;;;5.90;;
16430;SDS011;8325;49.284;7.238;2023-06-10T15:17:52;6.75;;;6.13;;
16430;SDS011;8325;49.284;7.238;2023-06-10T15:22:05;6.13;;;5.63;;
16430;SDS011;8325;49.284;7.238;2023-06-10T15:26:16;6.40;;;5.90;;
16430;SDS011;8325;49.284;7.238;2023-06-10T15:30:28;5.90;;;5.43;;
16430;SDS011;8325;49.284;7.238;2023-06-10T15:34:39;9.20;;;8.30;;
16430;SDS011;8325;49.284;7.238;2023-06-10T15:38:51;8.18;;;7.45;;
16430;SDS011;8325;49.284;7.238;2023-06-10T15:43:07;8.90;;;7.85;;
16430;SDS011;8325;49.284;7.238;2023-06-10T15:47:19;7.57;;;6.88;;
16430;SDS011;8325;49.284;7.238;2023-06-10T15:51:31;10.40;;;8.65;;
16430;SDS011;8325;49.284;7.238;2023-06-10T15:55:43;6.80;;;6.13;;
16430;SDS011;8325;49.284;7.238;2023-06-10T15:59:54;6.53;;;5.93;;
16430;SDS011;8325;49.284;7.238;2023-06-10T16:04:06;5.95;;;5.45;;
16430;SDS011;8325;49.284;7.238;2023-06-10T16:08:18;6.32;;;5.75;;
16430;SDS011;8325;49.284;7.238;2023-06-10T16:12:29;7.00;;;6.30;;
16430;SDS011;8325;49.284;7.238;2023-06-10T16:16:41;6.97;;;6.38;;
16430;SDS011;8325;49.284;7.238;2023-06-10T16:20:53;6.40;;;5.90;;
16430;SDS011;8325;49.284;7.238;2023-06-10T16:25:05;7.18;;;5.80;;
16430;SDS011;8325;49.284;7.238;2023-06-10T16:29:17;6.40;;;5.85;;
16430;SDS011;8325;49.284;7.238;2023-06-10T16:33:29;6.50;;;5.82;;
16430;SDS011;8325;49.284;7.238;2023-06-10T16:37:41;6.85;;;6.22;;
16430;SDS011;8325;49.284;7.238;2023-06-10T16:41:52;6.10;;;5.50;;
16430;SDS011;8325;49.284;7.238;2023-06-10T16:46:04;6.63;;;6.00;;
16430;SDS011;8325;49.284;7.238;2023-06-10T16:50:16;7.30;;;5.65;;
16430;SDS011;8325;49.284;7.238;2023-06-10T16:54:27;6.25;;;5.60;;
16430;SDS011;8325;49.284;7.238;2023-06-10T16:58:39;6.32;;;5.20;;
16430;SDS011;8325;49.284;7.238;2023-06-10T17:02:51;5.93;;;5.43;;
16430;SDS011;8325;49.284;7.238;2023-06-10T17:07:02;6.50;;;5.40;;
16430;SDS011;8325;49.284;7.238;2023-06-10T17:11:14;6.35;;;5.75;;
16430;SDS011;8325;49.284;7.238;2023-06-10T17:15:26;6.55;;;5.95;;
16430;SDS011;8325;49.284;7.238;2023-06-10T17:19:37;6.38;;;5.78;;
16430;SDS011;8325;49.284;7.238;2023-06-10T17:23:49;7.22;;;6.00;;
16430;SDS011;8325;49.284;7.238;2023-06-10T17:28:01;6.18;;;5.68;;
16430;SDS011;8325;49.284;7.238;2023-06-10T17:32:12;6.63;;;5.53;;
16430;SDS011;8325;49.284;7.238;2023-06-10T17:36:24;5.82;;;5.32;;
16430;SDS011;8325;49.284;7.238;2023-06-10T17:40:35;6.97;;;6.38;;
16430;SDS011;8325;49.284;7.238;2023-06-10T17:44:47;6.47;;;5.88;;
16430;SDS011;8325;49.284;7.238;2023-06-10T17:48:59;6.22;;;5.72;;
16430;SDS011;8325;49.284;7.238;2023-06-10T17:53:10;6.00;;;5.50;;
16430;SDS011;8325;49.284;7.238;2023-06-10T17:57:22;5.88;;;5.38;;
16430;SDS011;8325;49.284;7.238;2023-06-10T18:01:33;6.28;;;5.63;;
16430;SDS011;8325;49.284;7.238;2023-06-10T18:05:45;6.00;;;5.40;;
16430;SDS011;8325;49.284;7.238;2023-06-10T18:09:57;6.20;;;5.60;;
16430;SDS011;8325;49.284;7.238;2023-06-10T18:14:08;5.85;;;5.35;;
16430;SDS011;8325;49.284;7.238;2023-06-10T18:18:20;5.80;;;5.30;;
16430;SDS011;8325;49.284;7.238;2023-06-10T18:22:32;5.72;;;5.22;;
16430;SDS011;8325;49.284;7.238;2023-06-10T18:26:44;5.97;;;5.47;;
16430;SDS011;8325;49.284;7.238;2023-06-10T18:30:56;5.75;;;5.20;;
16430;SDS011;8325;49.284;7.238;2023-06-10T18:35:08;5.85;;;5.35;;
16430;SDS011;8325;49.284;7.238;2023-06-10T18:39:21;7.35;;;5.68;;
16430;SDS011;8325;49.284;7.238;2023-06-10T18:43:33;6.78;;;5.85;;
16430;SDS011;8325;49.284;7.238;2023-06-10T18:47:44;6.72;;;6.07;;
16430;SDS011;8325;49.284;7.238;2023-06-10T18:52:08;6.97;;;6.30;;
16430;SDS011;8325;49.284;7.238;2023-06-10T18:56:20;6.75;;;5.60;;
16430;SDS011;8325;49.284;7.238;2023-06-10T19:00:32;6.93;;;5.97;;
16430;SDS011;8325;49.284;7.238;2023-06-10T19:04:43;6.95;;;5.88;;
16430;SDS011;8325;49.284;7.238;2023-06-10T19:08:55;8.07;;;7.30;;
16430;SDS011;8325;49.284;7.238;2023-06-10T19:13:07;8.52;;;6.45;;
16430;SDS011;8325;49.284;7.238;2023-06-10T19:17:18;6.68;;;6.07;;
16430;SDS011;8325;49.284;7.238;2023-06-10T19:21:30;6.70;;;6.13;;
16430;SDS011;8325;49.284;7.238;2023-06-10T19:25:42;6.72;;;6.13;;
16430;SDS011;8325;49.284;7.238;2023-06-10T19:29:54;7.25;;;6.55;;
16430;SDS011;8325;49.284;7.238;2023-06-10T19:34:08;8.52;;;7.50;;
16430;SDS011;8325;49.284;7.238;2023-06-10T19:38:20;8.75;;;7.60;;
16430;SDS011;8325;49.284;7.238;2023-06-10T19:42:31;8.85;;;7.95;;
16430;SDS011;8325;49.284;7.238;2023-06-10T19:46:45;9.07;;;8.00;;
16430;SDS011;8325;49.284;7.238;2023-06-10T19:50:57;10.15;;;8.80;;
16430;SDS011;8325;49.284;7.238;2023-06-10T19:55:08;9.63;;;8.63;;
16430;SDS011;8325;49.284;7.238;2023-06-10T19:59:21;10.73;;;9.25;;
16430;SDS011;8325;49.284;7.238;2023-06-10T20:03:32;9.98;;;8.98;;
16430;SDS011;8325;49.284;7.238;2023-06-10T20:07:44;10.05;;;8.68;;
16430;SDS011;8325;49.284;7.238;2023-06-10T20:11:56;9.02;;;8.13;;
16430;SDS011;8325;49.284;7.238;2023-06-10T20:16:09;9.68;;;8.20;;
16430;SDS011;8325;49.284;7.238;2023-06-10T20:20:21;8.52;;;7.72;;
16430;SDS011;8325;49.284;7.238;2023-06-10T20:24:33;9.57;;;8.63;;
16430;SDS011;8325;49.284;7.238;2023-06-10T20:28:45;11.55;;;10.32;;
16430;SDS011;8325;49.284;7.238;2023-06-10T20:32:58;10.38;;;9.27;;
16430;SDS011;8325;49.284;7.238;2023-06-10T20:37:09;11.73;;;10.50;;
16430;SDS011;8325;49.284;7.238;2023-06-10T20:41:21;13.63;;;12.23;;
16430;SDS011;8325;49.284;7.238;2023-06-10T20:45:33;13.00;;;11.60;;
16430;SDS011;8325;49.284;7.238;2023-06-10T20:49:44;12.63;;;10.35;;
16430;SDS011;8325;49.284;7.238;2023-06-10T20:53:56;10.85;;;9.75;;
16430;SDS011;8325;49.284;7.238;2023-06-10T20:58:07;10.70;;;9.63;;
16430;SDS011;8325;49.284;7.238;2023-06-10T21:02:20;9.88;;;8.88;;
16430;SDS011;8325;49.284;7.238;2023-06-10T21:06:32;9.98;;;8.60;;
16430;SDS011;8325;49.284;7.238;2023-06-10T21:10:44;9.43;;;8.52;;
16430;SDS011;8325;49.284;7.238;2023-06-10T21:14:56;10.93;;;8.90;;
16430;SDS011;8325;49.284;7.238;2023-06-10T21:19:08;11.02;;;9.05;;
16430;SDS011;8325;49.284;7.238;2023-06-10T21:23:19;10.20;;;9.18;;
16430;SDS011;8325;49.284;7.238;2023-06-10T21:27:31;9.80;;;8.73;;
